Time,TemperatureF,DewpointF,PressureIn,WindDirection,WindDirectionDegrees,WindSpeedMPH,WindSpeedGustMPH,Humidity,HourlyPrecipIn,Conditions,Clouds,dailyrainin,SolarRadiationWatts/m^2,SoftwareType,DateUTC
2013-03-24 00:22:00,22.0,19.0,-100.00,NNE,29,4.0,10.0,87,0.00,,,0.06,0.000000,,2013-03-24 08:22:00,
2013-03-24 00:32:00,22.0,19.0,-100.00,NNE,29,4.0,10.0,87,0.00,,,0.06,0.000000,,2013-03-24 08:32:00,
2013-03-24 00:42:00,22.0,19.0,-100.00,NNE,29,4.0,10.0,87,0.00,,,0.06,0.000000,,2013-03-24 08:42:00,
2013-03-24 00:52:00,22.0,19.0,-100.00,NNE,29,4.0,10.0,87,0.00,,,0.06,0.000000,,2013-03-24 08:52:00,
2013-03-24 01:22:00,22.0,19.0,-100.00,NNE,32,6.0,11.0,87,0.00,,,0.06,0.000000,,2013-03-24 09:22:00,
2013-03-24 01:33:00,22.0,19.0,-100.00,NNE,32,6.0,11.0,87,0.00,,,0.06,0.000000,,2013-03-24 09:33:00,
2013-03-24 01:42:00,22.0,19.0,-100.00,NNE,32,6.0,11.0,87,0.00,,,0.06,0.000000,,2013-03-24 09:42:00,
2013-03-24 01:52:00,22.0,19.0,-100.00,NNE,32,6.0,11.0,87,0.00,,,0.06,0.000000,,2013-03-24 09:52:00,
2013-03-24 02:22:00,21.0,18.0,-100.00,NE,39,3.0,10.0,88,0.00,,,0.06,0.000000,,2013-03-24 10:22:00,
2013-03-24 02:32:00,21.0,18.0,-100.00,NE,39,3.0,10.0,88,0.00,,,0.06,0.000000,,2013-03-24 10:32:00,
2013-03-24 02:42:00,21.0,18.0,-100.00,NE,39,3.0,10.0,88,0.00,,,0.06,0.000000,,2013-03-24 10:42:00,
2013-03-24 02:52:00,21.0,18.0,-100.00,NE,39,3.0,10.0,88,0.00,,,0.06,0.000000,,2013-03-24 10:52:00,
2013-03-24 03:22:00,20.0,17.0,-100.00,NNE,33,4.0,5.0,89,0.00,,,0.06,0.000000,,2013-03-24 11:22:00,
2013-03-24 03:32:00,20.0,17.0,-100.00,NNE,33,4.0,5.0,89,0.00,,,0.06,0.000000,,2013-03-24 11:32:00,
2013-03-24 03:42:00,20.0,17.0,-100.00,NNE,33,4.0,5.0,89,0.00,,,0.06,0.000000,,2013-03-24 11:42:00,
2013-03-24 03:51:00,20.0,17.0,-100.00,NNE,33,4.0,5.0,89,0.00,,,0.06,0.000000,,2013-03-24 11:51:00,
2013-03-24 04:22:00,22.0,20.0,-100.00,NE,43,1.0,5.0,91,0.00,,,0.06,0.000000,,2013-03-24 12:22:00,
2013-03-24 04:32:00,22.0,20.0,-100.00,NE,43,1.0,5.0,91,0.00,,,0.06,0.000000,,2013-03-24 12:32:00,
2013-03-24 04:42:00,22.0,20.0,-100.00,NE,43,1.0,5.0,91,0.00,,,0.06,0.000000,,2013-03-24 12:42:00,
2013-03-24 04:52:00,22.0,20.0,-100.00,NE,43,1.0,5.0,91,0.00,,,0.06,0.000000,,2013-03-24 12:52:00,
2013-03-24 05:22:00,21.0,19.0,-100.00,South,176,1.0,3.0,91,0.00,,,0.06,0.000000,,2013-03-24 13:22:00,
2013-03-24 05:32:00,21.0,19.0,-100.00,South,176,1.0,3.0,91,0.00,,,0.06,0.000000,,2013-03-24 13:32:00,
2013-03-24 05:42:00,21.0,19.0,-100.00,South,176,1.0,3.0,91,0.00,,,0.06,0.000000,,2013-03-24 13:42:00,
2013-03-24 05:52:00,21.0,19.0,-100.00,South,176,1.0,3.0,91,0.00,,,0.06,0.000000,,2013-03-24 13:52:00,
2013-03-24 06:22:00,19.0,16.0,-100.00,NNE,18,3.0,6.0,87,0.00,,,0.06,0.000000,,2013-03-24 14:22:00,
2013-03-24 06:32:00,19.0,16.0,-100.00,NNE,18,3.0,6.0,87,0.00,,,0.06,0.000000,,2013-03-24 14:32:00,
2013-03-24 06:42:00,19.0,16.0,-100.00,NNE,18,3.0,6.0,87,0.00,,,0.06,0.000000,,2013-03-24 14:42:00,
2013-03-24 06:52:00,19.0,16.0,-100.00,NNE,18,3.0,6.0,87,0.00,,,0.06,0.000000,,2013-03-24 14:52:00,
2013-03-24 07:22:00,19.0,17.0,-100.00,NNE,28,2.0,4.0,90,0.00,,,0.06,0.000000,,2013-03-24 15:22:00,
2013-03-24 07:33:00,19.0,17.0,-100.00,NNE,28,2.0,4.0,90,0.00,,,0.06,0.000000,,2013-03-24 15:33:00,
2013-03-24 07:43:00,19.0,17.0,-100.00,NNE,28,2.0,4.0,90,0.00,,,0.06,0.000000,,2013-03-24 15:43:00,
2013-03-24 07:52:00,19.0,17.0,-100.00,NNE,28,2.0,4.0,90,0.00,,,0.06,0.000000,,2013-03-24 15:52:00,
2013-03-24 08:22:00,18.0,15.0,-100.00,South,191,2.0,3.0,89,0.00,,,-99.99,0.000000,,2013-03-24 16:22:00,
2013-03-24 08:32:00,18.0,15.0,-100.00,South,191,2.0,3.0,89,0.00,,,-99.99,0.000000,,2013-03-24 16:32:00,
2013-03-24 08:42:00,18.0,15.0,-100.00,South,191,2.0,3.0,89,0.00,,,-99.99,0.000000,,2013-03-24 16:42:00,
2013-03-24 08:52:00,18.0,15.0,-100.00,South,191,2.0,3.0,89,0.00,,,-99.99,0.000000,,2013-03-24 16:52:00,
2013-03-24 09:22:00,17.0,14.0,-100.00,South,183,3.0,4.0,88,0.00,,,0.06,6.000000,,2013-03-24 17:22:00,
2013-03-24 09:32:00,17.0,14.0,-100.00,South,183,3.0,4.0,88,0.00,,,0.06,6.000000,,2013-03-24 17:32:00,
2013-03-24 09:42:00,17.0,14.0,-100.00,South,183,3.0,4.0,88,0.00,,,0.06,6.000000,,2013-03-24 17:42:00,
2013-03-24 09:52:00,17.0,14.0,-100.00,South,183,3.0,4.0,88,0.00,,,0.06,6.000000,,2013-03-24 17:52:00,
2013-03-24 10:22:00,19.0,16.0,-100.00,South,190,2.0,4.0,87,0.00,,,0.06,22.000000,,2013-03-24 18:22:00,
2013-03-24 10:32:00,19.0,16.0,-100.00,South,190,2.0,4.0,87,0.00,,,0.06,22.000000,,2013-03-24 18:32:00,
2013-03-24 10:42:00,19.0,16.0,-100.00,South,190,2.0,4.0,87,0.00,,,0.06,22.000000,,2013-03-24 18:42:00,
2013-03-24 10:52:00,19.0,16.0,-100.00,South,190,2.0,4.0,87,0.00,,,0.06,22.000000,,2013-03-24 18:52:00,
2013-03-24 11:22:00,21.0,17.0,-100.00,North,359,2.0,3.0,83,0.00,,,0.06,37.000000,,2013-03-24 19:22:00,
2013-03-24 11:32:00,21.0,17.0,-100.00,North,359,2.0,3.0,83,0.00,,,0.06,37.000000,,2013-03-24 19:32:00,
2013-03-24 11:42:00,21.0,17.0,-100.00,North,359,2.0,3.0,83,0.00,,,0.06,37.000000,,2013-03-24 19:42:00,
2013-03-24 11:52:00,21.0,17.0,-100.00,North,359,2.0,3.0,83,0.00,,,0.06,37.000000,,2013-03-24 19:52:00,
2013-03-24 12:22:00,23.0,18.0,-100.00,North,0,3.0,4.0,82,0.00,,,0.06,47.000000,,2013-03-24 20:22:00,
2013-03-24 12:32:00,23.0,18.0,-100.00,North,0,3.0,4.0,82,0.00,,,0.06,47.000000,,2013-03-24 20:32:00,
2013-03-24 12:42:00,23.0,18.0,-100.00,North,0,3.0,4.0,82,0.00,,,0.06,47.000000,,2013-03-24 20:42:00,
2013-03-24 12:52:00,23.0,18.0,-100.00,North,0,3.0,4.0,82,0.00,,,0.06,47.000000,,2013-03-24 20:52:00,
2013-03-24 13:22:00,25.0,19.0,-100.00,North,2,3.0,6.0,79,0.00,,,0.06,67.000000,,2013-03-24 21:22:00,
2013-03-24 13:33:00,25.0,19.0,-100.00,North,2,3.0,6.0,79,0.00,,,0.06,67.000000,,2013-03-24 21:33:00,
2013-03-24 13:43:00,25.0,19.0,-100.00,North,2,3.0,6.0,79,0.00,,,0.06,67.000000,,2013-03-24 21:43:00,
2013-03-24 13:52:00,25.0,19.0,-100.00,North,2,3.0,6.0,79,0.00,,,0.06,67.000000,,2013-03-24 21:52:00,
2013-03-24 14:22:00,23.0,18.0,-100.00,NNW,327,3.0,5.0,81,0.00,,,0.06,68.000000,,2013-03-24 22:22:00,
2013-03-24 14:33:00,23.0,18.0,-100.00,NNW,327,3.0,5.0,81,0.00,,,0.06,68.000000,,2013-03-24 22:33:00,
2013-03-24 14:42:00,23.0,18.0,-100.00,NNW,327,3.0,5.0,81,0.00,,,0.06,68.000000,,2013-03-24 22:42:00,
2013-03-24 14:52:00,23.0,18.0,-100.00,NNW,327,3.0,5.0,81,0.00,,,0.06,68.000000,,2013-03-24 22:52:00,
2013-03-24 15:22:00,24.0,19.0,-100.00,WNW,299,2.0,5.0,81,0.00,,,-99.99,59.000000,,2013-03-24 23:22:00,
2013-03-24 15:32:00,24.0,19.0,-100.00,WNW,299,2.0,5.0,81,0.00,,,-99.99,59.000000,,2013-03-24 23:32:00,
2013-03-24 15:42:00,24.0,19.0,-100.00,WNW,299,2.0,5.0,81,0.00,,,-99.99,59.000000,,2013-03-24 23:42:00,
2013-03-24 15:52:00,24.0,19.0,-100.00,WNW,299,2.0,5.0,81,0.00,,,-99.99,59.000000,,2013-03-24 23:52:00,
2013-03-24 16:22:00,22.0,17.0,-100.00,NNW,342,3.0,5.0,82,0.00,,,0.01,50.000000,,2013-03-25 00:22:00,
2013-03-24 16:32:00,22.0,17.0,-100.00,NNW,342,3.0,5.0,82,0.00,,,0.01,50.000000,,2013-03-25 00:32:00,
2013-03-24 16:42:00,22.0,17.0,-100.00,NNW,342,3.0,5.0,82,0.00,,,0.01,50.000000,,2013-03-25 00:42:00,
2013-03-24 16:52:00,22.0,17.0,-100.00,NNW,342,3.0,5.0,82,0.00,,,0.01,50.000000,,2013-03-25 00:52:00,
2013-03-24 17:22:00,23.0,19.0,-100.00,North,353,2.0,5.0,83,0.00,,,0.00,48.000000,,2013-03-25 01:22:00,
2013-03-24 17:32:00,23.0,19.0,-100.00,North,353,2.0,5.0,83,0.00,,,0.00,48.000000,,2013-03-25 01:32:00,
2013-03-24 17:42:00,23.0,19.0,-100.00,North,353,2.0,5.0,83,0.00,,,0.00,48.000000,,2013-03-25 01:42:00,
2013-03-24 17:52:00,23.0,19.0,-100.00,North,353,2.0,5.0,83,0.00,,,0.00,48.000000,,2013-03-25 01:52:00,
2013-03-24 18:22:00,22.0,18.0,-100.00,NNW,344,3.0,5.0,83,0.00,,,0.00,36.000000,,2013-03-25 02:22:00,
2013-03-24 18:32:00,22.0,18.0,-100.00,NNW,344,3.0,5.0,83,0.00,,,0.00,36.000000,,2013-03-25 02:32:00,
2013-03-24 18:42:00,22.0,18.0,-100.00,NNW,344,3.0,5.0,83,0.00,,,0.00,36.000000,,2013-03-25 02:42:00,
2013-03-24 18:51:00,22.0,18.0,-100.00,NNW,344,3.0,5.0,83,0.00,,,0.00,36.000000,,2013-03-25 02:51:00,
2013-03-24 19:22:00,22.0,18.0,-100.00,NNW,340,2.0,5.0,86,0.00,,,0.00,18.000000,,2013-03-25 03:22:00,
2013-03-24 19:33:00,22.0,18.0,-100.00,NNW,340,2.0,5.0,86,0.00,,,0.00,18.000000,,2013-03-25 03:33:00,
2013-03-24 19:42:00,22.0,18.0,-100.00,NNW,340,2.0,5.0,86,0.00,,,0.00,18.000000,,2013-03-25 03:42:00,
2013-03-24 19:52:00,22.0,18.0,-100.00,NNW,340,2.0,5.0,86,0.00,,,0.00,18.000000,,2013-03-25 03:52:00,
2013-03-24 20:22:00,21.0,18.0,-100.00,NNW,347,2.0,4.0,88,0.00,,,0.00,9.000000,,2013-03-25 04:22:00,
2013-03-24 20:32:00,21.0,18.0,-100.00,NNW,347,2.0,4.0,88,0.00,,,0.00,9.000000,,2013-03-25 04:32:00,
2013-03-24 20:42:00,21.0,18.0,-100.00,NNW,347,2.0,4.0,88,0.00,,,0.00,9.000000,,2013-03-25 04:42:00,
2013-03-24 20:52:00,21.0,18.0,-100.00,NNW,347,2.0,4.0,88,0.00,,,0.00,9.000000,,2013-03-25 04:52:00,
2013-03-24 21:22:00,20.0,18.0,-100.00,NW,304,1.0,3.0,90,0.00,,,0.00,1.000000,,2013-03-25 05:22:00,
2013-03-24 21:32:00,20.0,18.0,-100.00,NW,304,1.0,3.0,90,0.00,,,0.00,1.000000,,2013-03-25 05:32:00,
2013-03-24 21:42:00,20.0,18.0,-100.00,NW,304,1.0,3.0,90,0.00,,,0.00,1.000000,,2013-03-25 05:42:00,
2013-03-24 21:52:00,20.0,18.0,-100.00,NW,304,1.0,3.0,90,0.00,,,0.00,1.000000,,2013-03-25 05:52:00,
2013-03-24 22:22:00,19.0,17.0,-100.00,SSW,209,2.0,4.0,92,0.00,,,0.00,0.000000,,2013-03-25 06:22:00,
2013-03-24 22:32:00,19.0,17.0,-100.00,SSW,209,2.0,4.0,92,0.00,,,0.00,0.000000,,2013-03-25 06:32:00,
2013-03-24 22:42:00,19.0,17.0,-100.00,SSW,209,2.0,4.0,92,0.00,,,0.00,0.000000,,2013-03-25 06:42:00,
2013-03-24 22:52:00,19.0,17.0,-100.00,SSW,209,2.0,4.0,92,0.00,,,0.00,0.000000,,2013-03-25 06:52:00,
2013-03-24 23:22:00,19.0,17.0,-100.00,SW,221,1.0,4.0,91,0.00,,,0.00,0.000000,,2013-03-25 07:22:00,
2013-03-24 23:32:00,19.0,17.0,-100.00,SW,221,1.0,4.0,91,0.00,,,0.00,0.000000,,2013-03-25 07:32:00,
2013-03-24 23:42:00,19.0,17.0,-100.00,SW,221,1.0,4.0,91,0.00,,,0.00,0.000000,,2013-03-25 07:42:00,
2013-03-24 23:52:00,19.0,17.0,-100.00,SW,221,1.0,4.0,91,0.00,,,0.00,0.000000,,2013-03-25 07:52:00,